Terminal Aerodrome Forecast
Issued by NWS

Home | Current Version | Previous Version | Text Only | Print | Product List | Glossary On
Versions: 1 2 3 4 5 6 7 8 9 10 11 12 13 14 15 16 17
000
FTUS46 KMTR 292300
TAFSTS
TAF
KSTS 292330Z 3000/3024 17010KT P6SM SKC
     FM300400 14005KT P6SM SKC
     FM300700 VRB03KT P6SM OVC006
     FM301100 00000KT 5SM BR OVC004
     FM301600 16006KT P6SM SCT010=

USA.gov is the U.S. government's official web portal to all federal, state and local government web resources and services.